sensor_id;sensor_type;location;lat;lon;timestamp;pressure;altitude;pressure_sealevel;temperature;humidity
57024;BME280;42916;54.346;18.562;2023-07-20T00:00:02;99723.05;;;12.32;96.09
57024;BME280;42916;54.346;18.562;2023-07-20T00:03:13;99722.48;;;12.28;96.24
57024;BME280;42916;54.346;18.562;2023-07-20T00:05:43;99729.27;;;12.24;96.31
57024;BME280;42916;54.346;18.562;2023-07-20T00:08:10;99724.29;;;12.19;96.86
57024;BME280;42916;54.346;18.562;2023-07-20T00:10:37;99722.61;;;12.15;96.75
57024;BME280;42916;54.346;18.562;2023-07-20T00:13:04;99724.45;;;12.12;96.81
57024;BME280;42916;54.346;18.562;2023-07-20T00:15:31;99716.62;;;12.08;96.80
57024;BME280;42916;54.346;18.562;2023-07-20T00:17:57;99714.77;;;12.06;96.87
57024;BME280;42916;54.346;18.562;2023-07-20T00:20:24;99710.25;;;12.04;97.13
57024;BME280;42916;54.346;18.562;2023-07-20T00:22:51;99708.78;;;12.03;97.13
57024;BME280;42916;54.346;18.562;2023-07-20T00:25:18;99711.95;;;12.02;97.43
57024;BME280;42916;54.346;18.562;2023-07-20T00:27:45;99713.87;;;12.02;97.45
57024;BME280;42916;54.346;18.562;2023-07-20T00:30:12;99712.02;;;12.02;97.99
57024;BME280;42916;54.346;18.562;2023-07-20T00:32:39;99715.24;;;12.00;98.17
57024;BME280;42916;54.346;18.562;2023-07-20T00:35:06;99715.35;;;12.00;98.10
57024;BME280;42916;54.346;18.562;2023-07-20T00:37:33;99717.60;;;11.98;98.13
57024;BME280;42916;54.346;18.562;2023-07-20T00:39:59;99720.11;;;11.97;98.23
57024;BME280;42916;54.346;18.562;2023-07-20T00:42:26;99717.29;;;11.95;98.69
57024;BME280;42916;54.346;18.562;2023-07-20T00:44:53;99719.05;;;11.93;98.78
57024;BME280;42916;54.346;18.562;2023-07-20T00:47:20;99724.11;;;11.92;99.11
57024;BME280;42916;54.346;18.562;2023-07-20T00:49:47;99720.85;;;11.91;99.31
57024;BME280;42916;54.346;18.562;2023-07-20T00:52:14;99722.65;;;11.91;99.70
57024;BME280;42916;54.346;18.562;2023-07-20T00:54:43;99722.82;;;11.92;99.78
57024;BME280;42916;54.346;18.562;2023-07-20T00:57:14;99724.81;;;11.94;99.80
57024;BME280;42916;54.346;18.562;2023-07-20T00:59:41;99727.48;;;11.94;99.98
57024;BME280;42916;54.346;18.562;2023-07-20T01:02:08;99732.02;;;11.93;100.00
57024;BME280;42916;54.346;18.562;2023-07-20T01:04:36;99735.34;;;11.92;100.00
57024;BME280;42916;54.346;18.562;2023-07-20T01:12:47;99736.59;;;11.91;100.00
57024;BME280;42916;54.346;18.562;2023-07-20T01:15:14;99737.53;;;11.93;100.00
57024;BME280;42916;54.346;18.562;2023-07-20T01:17:41;99740.55;;;11.96;100.00
57024;BME280;42916;54.346;18.562;2023-07-20T01:20:09;99739.58;;;11.98;100.00
57024;BME280;42916;54.346;18.562;2023-07-20T01:31:21;99732.17;;;12.04;100.00
57024;BME280;42916;54.346;18.562;2023-07-20T01:33:50;99732.23;;;12.04;100.00
57024;BME280;42916;54.346;18.562;2023-07-20T01:36:19;99731.95;;;12.04;100.00
57024;BME280;42916;54.346;18.562;2023-07-20T01:38:48;99732.71;;;12.05;100.00
57024;BME280;42916;54.346;18.562;2023-07-20T01:41:16;99729.48;;;12.06;100.00
57024;BME280;42916;54.346;18.562;2023-07-20T01:43:43;99731.73;;;12.06;100.00
57024;BME280;42916;54.346;18.562;2023-07-20T01:46:10;99728.98;;;12.08;100.00
57024;BME280;42916;54.346;18.562;2023-07-20T01:48:36;99727.40;;;12.08;100.00
57024;BME280;42916;54.346;18.562;2023-07-20T01:51:03;99724.18;;;12.09;100.00
57024;BME280;42916;54.346;18.562;2023-07-20T01:53:30;99725.11;;;12.11;100.00
57024;BME280;42916;54.346;18.562;2023-07-20T01:55:57;99723.35;;;12.12;100.00
57024;BME280;42916;54.346;18.562;2023-07-20T01:58:24;99720.19;;;12.12;100.00
57024;BME280;42916;54.346;18.562;2023-07-20T02:00:51;99721.39;;;12.13;100.00
57024;BME280;42916;54.346;18.562;2023-07-20T02:03:18;99724.77;;;12.14;100.00
57024;BME280;42916;54.346;18.562;2023-07-20T02:05:45;99723.34;;;12.14;100.00
57024;BME280;42916;54.346;18.562;2023-07-20T02:08:12;99722.27;;;12.11;100.00
57024;BME280;42916;54.346;18.562;2023-07-20T02:10:39;99722.77;;;12.10;100.00
57024;BME280;42916;54.346;18.562;2023-07-20T02:13:06;99719.73;;;12.06;100.00
57024;BME280;42916;54.346;18.562;2023-07-20T02:15:33;99720.68;;;12.03;100.00
57024;BME280;42916;54.346;18.562;2023-07-20T02:17:59;99724.66;;;12.01;100.00
57024;BME280;42916;54.346;18.562;2023-07-20T02:20:26;99725.44;;;12.00;100.00
57024;BME280;42916;54.346;18.562;2023-07-20T02:22:54;99724.08;;;12.00;100.00
57024;BME280;42916;54.346;18.562;2023-07-20T02:25:21;99722.23;;;12.00;100.00
57024;BME280;42916;54.346;18.562;2023-07-20T02:27:48;99725.38;;;12.00;100.00
57024;BME280;42916;54.346;18.562;2023-07-20T02:30:15;99725.83;;;12.00;100.00
57024;BME280;42916;54.346;18.562;2023-07-20T02:32:42;99725.81;;;12.00;100.00
57024;BME280;42916;54.346;18.562;2023-07-20T02:35:11;99724.90;;;12.00;100.00
57024;BME280;42916;54.346;18.562;2023-07-20T02:37:39;99722.49;;;11.99;100.00
57024;BME280;42916;54.346;18.562;2023-07-20T02:40:06;99720.34;;;12.02;100.00
57024;BME280;42916;54.346;18.562;2023-07-20T02:42:34;99716.63;;;12.05;100.00
57024;BME280;42916;54.346;18.562;2023-07-20T02:45:02;99723.48;;;12.09;100.00
57024;BME280;42916;54.346;18.562;2023-07-20T02:47:29;99718.56;;;12.12;100.00
57024;BME280;42916;54.346;18.562;2023-07-20T02:49:56;99717.79;;;12.13;100.00
57024;BME280;42916;54.346;18.562;2023-07-20T02:52:23;99713.95;;;12.15;100.00
57024;BME280;42916;54.346;18.562;2023-07-20T02:54:50;99714.58;;;12.18;100.00
57024;BME280;42916;54.346;18.562;2023-07-20T02:57:18;99714.73;;;12.21;100.00
57024;BME280;42916;54.346;18.562;2023-07-20T02:59:44;99714.23;;;12.22;100.00
57024;BME280;42916;54.346;18.562;2023-07-20T03:02:11;99714.22;;;12.26;100.00
57024;BME280;42916;54.346;18.562;2023-07-20T03:04:38;99712.65;;;12.30;100.00
57024;BME280;42916;54.346;18.562;2023-07-20T03:07:05;99719.52;;;12.36;100.00
57024;BME280;42916;54.346;18.562;2023-07-20T03:09:32;99718.30;;;12.40;100.00
57024;BME280;42916;54.346;18.562;2023-07-20T03:11:59;99719.77;;;12.42;100.00
57024;BME280;42916;54.346;18.562;2023-07-20T03:14:26;99718.34;;;12.44;100.00
57024;BME280;42916;54.346;18.562;2023-07-20T03:16:53;99717.77;;;12.46;100.00
57024;BME280;42916;54.346;18.562;2023-07-20T03:19:20;99721.03;;;12.48;100.00
57024;BME280;42916;54.346;18.562;2023-07-20T03:21:46;99717.94;;;12.53;100.00
57024;BME280;42916;54.346;18.562;2023-07-20T03:24:13;99717.61;;;12.53;100.00
57024;BME280;42916;54.346;18.562;2023-07-20T03:26:40;99718.44;;;12.52;100.00
57024;BME280;42916;54.346;18.562;2023-07-20T03:29:07;99718.69;;;12.53;100.00
57024;BME280;42916;54.346;18.562;2023-07-20T03:31:35;99715.90;;;12.56;100.00
57024;BME280;42916;54.346;18.562;2023-07-20T03:34:01;99718.11;;;12.58;100.00
57024;BME280;42916;54.346;18.562;2023-07-20T03:36:28;99722.04;;;12.60;100.00
57024;BME280;42916;54.346;18.562;2023-07-20T03:38:55;99721.66;;;12.65;100.00
57024;BME280;42916;54.346;18.562;2023-07-20T03:41:22;99724.40;;;12.71;100.00
57024;BME280;42916;54.346;18.562;2023-07-20T03:43:48;99724.57;;;12.76;100.00
57024;BME280;42916;54.346;18.562;2023-07-20T03:46:15;99724.53;;;12.81;100.00
57024;BME280;42916;54.346;18.562;2023-07-20T03:48:42;99725.16;;;12.85;100.00
57024;BME280;42916;54.346;18.562;2023-07-20T03:51:09;99731.10;;;12.86;100.00
57024;BME280;42916;54.346;18.562;2023-07-20T03:53:36;99730.77;;;12.86;100.00
57024;BME280;42916;54.346;18.562;2023-07-20T03:56:03;99731.64;;;12.91;100.00
57024;BME280;42916;54.346;18.562;2023-07-20T03:58:30;99729.08;;;12.97;100.00
57024;BME280;42916;54.346;18.562;2023-07-20T04:00:58;99727.91;;;13.06;100.00
57024;BME280;42916;54.346;18.562;2023-07-20T04:03:25;99724.30;;;13.15;100.00
57024;BME280;42916;54.346;18.562;2023-07-20T04:05:54;99722.70;;;13.23;100.00
57024;BME280;42916;54.346;18.562;2023-07-20T04:08:24;99726.78;;;13.30;100.00
57024;BME280;42916;54.346;18.562;2023-07-20T04:10:51;99727.39;;;13.37;100.00
57024;BME280;42916;54.346;18.562;2023-07-20T04:13:18;99729.94;;;13.44;100.00
57024;BME280;42916;54.346;18.562;2023-07-20T04:15:45;99732.08;;;13.51;100.00
57024;BME280;42916;54.346;18.562;2023-07-20T04:18:12;99728.46;;;13.62;100.00
57024;BME280;42916;54.346;18.562;2023-07-20T04:20:39;99722.05;;;13.72;100.00
57024;BME280;42916;54.346;18.562;2023-07-20T04:23:05;99720.66;;;13.79;100.00
57024;BME280;42916;54.346;18.562;2023-07-20T04:25:32;99723.20;;;13.85;99.90
57024;BME280;42916;54.346;18.562;2023-07-20T04:28:06;99724.94;;;13.89;99.74
57024;BME280;42916;54.346;18.562;2023-07-20T04:30:38;99720.34;;;13.91;99.44
57024;BME280;42916;54.346;18.562;2023-07-20T04:33:06;99724.47;;;13.92;99.23
57024;BME280;42916;54.346;18.562;2023-07-20T04:36:03;99727.27;;;13.99;99.33
57024;BME280;42916;54.346;18.562;2023-07-20T04:38:33;99729.70;;;14.03;98.96
57024;BME280;42916;54.346;18.562;2023-07-20T04:41:20;99730.70;;;14.05;98.65
57024;BME280;42916;54.346;18.562;2023-07-20T04:43:49;99734.15;;;14.04;98.36
57024;BME280;42916;54.346;18.562;2023-07-20T04:46:21;99739.17;;;14.05;98.55
57024;BME280;42916;54.346;18.562;2023-07-20T04:48:48;99746.54;;;14.07;98.39
57024;BME280;42916;54.346;18.562;2023-07-20T04:51:15;99747.39;;;14.08;98.09
57024;BME280;42916;54.346;18.562;2023-07-20T04:53:43;99745.98;;;14.08;97.97
57024;BME280;42916;54.346;18.562;2023-07-20T04:56:10;99750.77;;;14.09;97.92
57024;BME280;42916;54.346;18.562;2023-07-20T04:58:37;99753.10;;;14.06;97.74
57024;BME280;42916;54.346;18.562;2023-07-20T05:01:04;99749.14;;;14.01;97.85
57024;BME280;42916;54.346;18.562;2023-07-20T05:03:32;99753.86;;;13.94;98.00
57024;BME280;42916;54.346;18.562;2023-07-20T05:05:59;99757.96;;;13.90;98.29
57024;BME280;42916;54.346;18.562;2023-07-20T05:08:26;99756.32;;;13.91;98.53
57024;BME280;42916;54.346;18.562;2023-07-20T05:10:54;99754.00;;;13.97;98.72
57024;BME280;42916;54.346;18.562;2023-07-20T05:13:21;99753.45;;;14.05;98.69
57024;BME280;42916;54.346;18.562;2023-07-20T05:15:54;99751.45;;;14.12;98.42
57024;BME280;42916;54.346;18.562;2023-07-20T05:18:21;99749.76;;;14.19;98.69
57024;BME280;42916;54.346;18.562;2023-07-20T05:20:50;99745.89;;;14.25;98.34
57024;BME280;42916;54.346;18.562;2023-07-20T05:23:18;99740.84;;;14.34;98.34
57024;BME280;42916;54.346;18.562;2023-07-20T05:25:47;99741.27;;;14.46;98.23
57024;BME280;42916;54.346;18.562;2023-07-20T05:28:13;99736.92;;;14.54;97.71
57024;BME280;42916;54.346;18.562;2023-07-20T05:30:40;99743.20;;;14.60;97.53
57024;BME280;42916;54.346;18.562;2023-07-20T05:33:07;99747.97;;;14.67;97.48
57024;BME280;42916;54.346;18.562;2023-07-20T05:35:36;99737.19;;;14.74;97.65
57024;BME280;42916;54.346;18.562;2023-07-20T05:38:03;99736.45;;;14.79;97.31
57024;BME280;42916;54.346;18.562;2023-07-20T05:40:31;99740.26;;;14.83;97.16
57024;BME280;42916;54.346;18.562;2023-07-20T05:42:58;99740.66;;;14.89;97.02
57024;BME280;42916;54.346;18.562;2023-07-20T05:45:27;99746.11;;;14.97;96.65
57024;BME280;42916;54.346;18.562;2023-07-20T05:47:53;99739.40;;;15.04;96.51
57024;BME280;42916;54.346;18.562;2023-07-20T05:50:20;99739.75;;;15.13;96.39
57024;BME280;42916;54.346;18.562;2023-07-20T05:52:47;99739.11;;;15.21;96.03
57024;BME280;42916;54.346;18.562;2023-07-20T05:55:14;99741.17;;;15.27;96.01
57024;BME280;42916;54.346;18.562;2023-07-20T05:57:41;99742.06;;;15.33;95.71
57024;BME280;42916;54.346;18.562;2023-07-20T06:00:09;99738.17;;;15.36;95.25
57024;BME280;42916;54.346;18.562;2023-07-20T06:02:39;99741.38;;;15.37;95.05
57024;BME280;42916;54.346;18.562;2023-07-20T06:05:07;99739.67;;;15.40;94.97
57024;BME280;42916;54.346;18.562;2023-07-20T06:07:37;99735.66;;;15.41;94.71
57024;BME280;42916;54.346;18.562;2023-07-20T06:10:05;99740.47;;;15.45;94.61
57024;BME280;42916;54.346;18.562;2023-07-20T06:12:32;99743.55;;;15.47;94.19
57024;BME280;42916;54.346;18.562;2023-07-20T06:15:04;99739.55;;;15.47;94.42
57024;BME280;42916;54.346;18.562;2023-07-20T06:17:31;99741.48;;;15.49;94.59
57024;BME280;42916;54.346;18.562;2023-07-20T06:19:58;99735.88;;;15.55;94.63
57024;BME280;42916;54.346;18.562;2023-07-20T06:22:25;99738.00;;;15.63;94.39
57024;BME280;42916;54.346;18.562;2023-07-20T06:24:51;99737.73;;;15.69;93.99
57024;BME280;42916;54.346;18.562;2023-07-20T06:27:18;99736.42;;;15.71;93.91
57024;BME280;42916;54.346;18.562;2023-07-20T06:29:45;99734.55;;;15.72;93.48
57024;BME280;42916;54.346;18.562;2023-07-20T06:32:12;99737.91;;;15.71;93.75
57024;BME280;42916;54.346;18.562;2023-07-20T06:34:40;99738.45;;;15.75;93.68
57024;BME280;42916;54.346;18.562;2023-07-20T06:37:07;99740.90;;;15.79;93.53
57024;BME280;42916;54.346;18.562;2023-07-20T06:39:33;99740.63;;;15.85;92.93
57024;BME280;42916;54.346;18.562;2023-07-20T06:42:00;99742.80;;;15.83;92.13
57024;BME280;42916;54.346;18.562;2023-07-20T06:44:27;99745.48;;;15.89;92.52
57024;BME280;42916;54.346;18.562;2023-07-20T06:46:53;99748.11;;;15.97;91.74
57024;BME280;42916;54.346;18.562;2023-07-20T06:49:24;99750.52;;;16.02;91.02
57024;BME280;42916;54.346;18.562;2023-07-20T06:51:52;99750.16;;;16.03;90.28
57024;BME280;42916;54.346;18.562;2023-07-20T06:54:19;99749.73;;;16.00;89.00
57024;BME280;42916;54.346;18.562;2023-07-20T06:56:46;99753.06;;;15.98;88.61
57024;BME280;42916;54.346;18.562;2023-07-20T06:59:13;99750.78;;;15.90;87.31
57024;BME280;42916;54.346;18.562;2023-07-20T07:01:39;99744.13;;;15.85;88.04
57024;BME280;42916;54.346;18.562;2023-07-20T07:04:06;99742.95;;;15.84;87.27
57024;BME280;42916;54.346;18.562;2023-07-20T07:06:33;99743.20;;;15.76;86.90
57024;BME280;42916;54.346;18.562;2023-07-20T07:09:00;99745.23;;;15.70;86.85
57024;BME280;42916;54.346;18.562;2023-07-20T07:11:26;99745.20;;;15.66;87.70
57024;BME280;42916;54.346;18.562;2023-07-20T07:13:54;99741.81;;;15.63;88.20
57024;BME280;42916;54.346;18.562;2023-07-20T07:16:21;99742.63;;;15.55;88.90
57024;BME280;42916;54.346;18.562;2023-07-20T07:18:50;99734.98;;;15.48;89.65
57024;BME280;42916;54.346;18.562;2023-07-20T07:21:17;99738.77;;;15.50;90.51
57024;BME280;42916;54.346;18.562;2023-07-20T07:23:44;99732.06;;;15.57;90.80
57024;BME280;42916;54.346;18.562;2023-07-20T07:26:10;99732.38;;;15.71;91.54
57024;BME280;42916;54.346;18.562;2023-07-20T07:28:37;99724.66;;;15.85;91.63
57024;BME280;42916;54.346;18.562;2023-07-20T07:31:05;99726.30;;;16.00;91.70
57024;BME280;42916;54.346;18.562;2023-07-20T07:33:32;99725.89;;;16.09;91.36
57024;BME280;42916;54.346;18.562;2023-07-20T07:35:59;99728.91;;;16.14;90.67
57024;BME280;42916;54.346;18.562;2023-07-20T07:38:26;99732.34;;;16.15;90.68
57024;BME280;42916;54.346;18.562;2023-07-20T07:40:52;99731.81;;;16.22;90.67
57024;BME280;42916;54.346;18.562;2023-07-20T07:43:19;99733.77;;;16.29;90.41
57024;BME280;42916;54.346;18.562;2023-07-20T07:45:46;99732.14;;;16.32;90.29
57024;BME280;42916;54.346;18.562;2023-07-20T07:48:13;99731.89;;;16.34;90.44
57024;BME280;42916;54.346;18.562;2023-07-20T07:50:40;99728.40;;;16.34;90.31
57024;BME280;42916;54.346;18.562;2023-07-20T07:53:07;99727.66;;;16.30;89.92
57024;BME280;42916;54.346;18.562;2023-07-20T07:55:35;99733.40;;;16.29;90.43
57024;BME280;42916;54.346;18.562;2023-07-20T07:58:02;99735.52;;;16.45;90.89
57024;BME280;42916;54.346;18.562;2023-07-20T08:00:29;99734.85;;;16.74;91.42
57024;BME280;42916;54.346;18.562;2023-07-20T08:02:55;99733.38;;;17.04;90.91
57024;BME280;42916;54.346;18.562;2023-07-20T08:05:22;99732.85;;;17.27;90.10
57024;BME280;42916;54.346;18.562;2023-07-20T08:07:49;99736.94;;;17.47;88.67
57024;BME280;42916;54.346;18.562;2023-07-20T08:10:15;99738.10;;;17.54;85.30
57024;BME280;42916;54.346;18.562;2023-07-20T08:12:42;99735.56;;;17.49;84.52
57024;BME280;42916;54.346;18.562;2023-07-20T08:15:11;99736.38;;;17.52;85.23
57024;BME280;42916;54.346;18.562;2023-07-20T08:17:39;99733.92;;;17.60;85.33
57024;BME280;42916;54.346;18.562;2023-07-20T08:20:06;99734.54;;;17.75;84.78
57024;BME280;42916;54.346;18.562;2023-07-20T08:22:33;99735.32;;;17.91;83.50
57024;BME280;42916;54.346;18.562;2023-07-20T08:25:00;99740.02;;;18.01;81.68
57024;BME280;42916;54.346;18.562;2023-07-20T08:27:26;99734.21;;;18.11;81.92
57024;BME280;42916;54.346;18.562;2023-07-20T08:29:53;99737.85;;;18.22;81.26
57024;BME280;42916;54.346;18.562;2023-07-20T08:32:20;99740.84;;;18.27;78.56
57024;BME280;42916;54.346;18.562;2023-07-20T08:34:47;99742.17;;;18.32;78.72
57024;BME280;42916;54.346;18.562;2023-07-20T08:37:14;99743.83;;;18.39;76.52
57024;BME280;42916;54.346;18.562;2023-07-20T08:39:40;99741.88;;;18.38;76.55
57024;BME280;42916;54.346;18.562;2023-07-20T08:42:07;99737.70;;;18.50;77.17
57024;BME280;42916;54.346;18.562;2023-07-20T08:44:35;99738.08;;;18.67;76.35
57024;BME280;42916;54.346;18.562;2023-07-20T08:47:02;99738.03;;;18.75;75.98
57024;BME280;42916;54.346;18.562;2023-07-20T08:49:35;99739.98;;;18.87;75.79
57024;BME280;42916;54.346;18.562;2023-07-20T08:52:03;99745.05;;;18.89;73.70
57024;BME280;42916;54.346;18.562;2023-07-20T08:54:30;99736.08;;;18.86;73.52
57024;BME280;42916;54.346;18.562;2023-07-20T08:57:02;99739.51;;;18.83;72.12
57024;BME280;42916;54.346;18.562;2023-07-20T08:59:30;99745.23;;;18.76;71.41
57024;BME280;42916;54.346;18.562;2023-07-20T09:01:58;99742.13;;;18.68;71.83
57024;BME280;42916;54.346;18.562;2023-07-20T09:04:25;99739.97;;;18.60;71.07
57024;BME280;42916;54.346;18.562;2023-07-20T09:06:52;99742.00;;;18.60;72.00
57024;BME280;42916;54.346;18.562;2023-07-20T09:09:19;99739.56;;;18.58;71.48
57024;BME280;42916;54.346;18.562;2023-07-20T09:11:49;99740.77;;;18.57;71.12
57024;BME280;42916;54.346;18.562;2023-07-20T09:14:16;99738.67;;;18.59;70.99
57024;BME280;42916;54.346;18.562;2023-07-20T09:16:49;99735.55;;;18.67;71.53
57024;BME280;42916;54.346;18.562;2023-07-20T09:19:17;99739.98;;;18.76;70.97
57024;BME280;42916;54.346;18.562;2023-07-20T09:21:46;99729.78;;;18.82;69.13
57024;BME280;42916;54.346;18.562;2023-07-20T09:24:13;99730.02;;;18.87;69.36
57024;BME280;42916;54.346;18.562;2023-07-20T09:26:42;99736.15;;;18.98;67.21
57024;BME280;42916;54.346;18.562;2023-07-20T09:29:09;99728.70;;;18.95;65.52
57024;BME280;42916;54.346;18.562;2023-07-20T09:31:39;99730.38;;;18.96;66.14
57024;BME280;42916;54.346;18.562;2023-07-20T09:34:08;99724.75;;;19.06;66.25
57024;BME280;42916;54.346;18.562;2023-07-20T09:36:36;99722.23;;;19.19;66.93
57024;BME280;42916;54.346;18.562;2023-07-20T09:39:03;99727.30;;;19.37;65.79
57024;BME280;42916;54.346;18.562;2023-07-20T09:41:39;99723.11;;;19.44;65.41
57024;BME280;42916;54.346;18.562;2023-07-20T09:44:10;99720.04;;;19.56;65.35
57024;BME280;42916;54.346;18.562;2023-07-20T09:46:47;99718.99;;;19.63;63.13
57024;BME280;42916;54.346;18.562;2023-07-20T09:49:14;99723.14;;;19.51;61.17
57024;BME280;42916;54.346;18.562;2023-07-20T09:51:41;99722.63;;;19.29;60.52
57024;BME280;42916;54.346;18.562;2023-07-20T09:54:09;99724.81;;;19.15;62.86
57024;BME280;42916;54.346;18.562;2023-07-20T09:56:37;99722.85;;;19.11;63.89
57024;BME280;42916;54.346;18.562;2023-07-20T09:59:04;99724.71;;;19.05;64.18
57024;BME280;42916;54.346;18.562;2023-07-20T10:01:32;99719.55;;;18.95;63.91
57024;BME280;42916;54.346;18.562;2023-07-20T10:04:03;99723.80;;;18.75;64.78
57024;BME280;42916;54.346;18.562;2023-07-20T10:06:32;99723.86;;;18.59;66.11
57024;BME280;42916;54.346;18.562;2023-07-20T10:09:01;99723.48;;;18.47;67.12
57024;BME280;42916;54.346;18.562;2023-07-20T10:11:35;99720.77;;;18.42;68.20
57024;BME280;42916;54.346;18.562;2023-07-20T10:14:04;99720.36;;;18.55;69.12
57024;BME280;42916;54.346;18.562;2023-07-20T10:16:35;99719.66;;;18.67;69.47
57024;BME280;42916;54.346;18.562;2023-07-20T10:19:11;99725.48;;;18.76;69.00
57024;BME280;42916;54.346;18.562;2023-07-20T10:21:42;99720.11;;;18.72;68.31
57024;BME280;42916;54.346;18.562;2023-07-20T10:24:12;99720.73;;;18.72;68.25
57024;BME280;42916;54.346;18.562;2023-07-20T10:26:39;99724.58;;;18.77;67.08
57024;BME280;42916;54.346;18.562;2023-07-20T10:29:07;99722.42;;;18.85;67.25
57024;BME280;42916;54.346;18.562;2023-07-20T10:31:34;99725.48;;;19.01;67.34
57024;BME280;42916;54.346;18.562;2023-07-20T10:34:01;99735.48;;;19.06;67.13
57024;BME280;42916;54.346;18.562;2023-07-20T10:36:29;99735.68;;;19.04;66.72
57024;BME280;42916;54.346;18.562;2023-07-20T10:38:56;99733.77;;;19.01;66.81
57024;BME280;42916;54.346;18.562;2023-07-20T10:41:39;99731.67;;;18.96;66.66
57024;BME280;42916;54.346;18.562;2023-07-20T10:44:08;99733.70;;;18.91;66.81
57024;BME280;42916;54.346;18.562;2023-07-20T10:49:06;99729.31;;;18.77;66.75
57024;BME280;42916;54.346;18.562;2023-07-20T10:51:47;99729.26;;;18.76;67.10
57024;BME280;42916;54.346;18.562;2023-07-20T10:56:47;99720.31;;;18.84;67.79
57024;BME280;42916;54.346;18.562;2023-07-20T10:59:36;99718.60;;;19.00;68.01
57024;BME280;42916;54.346;18.562;2023-07-20T11:02:08;99727.68;;;19.12;67.30
57024;BME280;42916;54.346;18.562;2023-07-20T11:04:45;99732.14;;;19.15;67.58
57024;BME280;42916;54.346;18.562;2023-07-20T11:10:13;99744.25;;;19.20;67.95
57024;BME280;42916;54.346;18.562;2023-07-20T11:12:40;99741.45;;;19.15;68.30
57024;BME280;42916;54.346;18.562;2023-07-20T11:15:07;99745.38;;;19.13;68.80
57024;BME280;42916;54.346;18.562;2023-07-20T11:17:34;99750.80;;;19.19;68.78
57024;BME280;42916;54.346;18.562;2023-07-20T11:20:02;99751.89;;;19.26;68.55
57024;BME280;42916;54.346;18.562;2023-07-20T11:22:33;99758.05;;;19.36;68.46
57024;BME280;42916;54.346;18.562;2023-07-20T11:25:00;99754.83;;;19.40;67.90
57024;BME280;42916;54.346;18.562;2023-07-20T11:27:27;99763.55;;;19.32;67.43
57024;BME280;42916;54.346;18.562;2023-07-20T11:29:54;99761.49;;;19.24;67.10
57024;BME280;42916;54.346;18.562;2023-07-20T11:32:22;99763.46;;;19.28;66.78
57024;BME280;42916;54.346;18.562;2023-07-20T11:34:50;99762.44;;;19.24;66.39
57024;BME280;42916;54.346;18.562;2023-07-20T11:37:17;99769.38;;;19.18;67.09
57024;BME280;42916;54.346;18.562;2023-07-20T11:39:47;99766.08;;;19.13;67.12
57024;BME280;42916;54.346;18.562;2023-07-20T11:42:14;99764.42;;;19.13;67.79
57024;BME280;42916;54.346;18.562;2023-07-20T11:44:41;99768.19;;;19.22;67.77
57024;BME280;42916;54.346;18.562;2023-07-20T11:47:10;99768.84;;;19.41;66.91
57024;BME280;42916;54.346;18.562;2023-07-20T11:49:42;99771.45;;;19.74;66.89
57024;BME280;42916;54.346;18.562;2023-07-20T11:52:10;99771.67;;;20.21;65.22
57024;BME280;42916;54.346;18.562;2023-07-20T11:54:39;99769.35;;;20.28;62.03
57024;BME280;42916;54.346;18.562;2023-07-20T11:57:06;99767.02;;;20.36;61.91
57024;BME280;42916;54.346;18.562;2023-07-20T11:59:33;99765.42;;;20.57;61.75
57024;BME280;42916;54.346;18.562;2023-07-20T12:02:03;99767.98;;;20.69;60.35
57024;BME280;42916;54.346;18.562;2023-07-20T12:04:33;99768.75;;;20.71;58.13
57024;BME280;42916;54.346;18.562;2023-07-20T12:07:00;99770.45;;;20.55;54.08
57024;BME280;42916;54.346;18.562;2023-07-20T12:09:27;99762.30;;;20.40;54.99
57024;BME280;42916;54.346;18.562;2023-07-20T12:11:54;99760.06;;;20.55;55.44
57024;BME280;42916;54.346;18.562;2023-07-20T12:14:25;99764.27;;;20.61;55.56
57024;BME280;42916;54.346;18.562;2023-07-20T12:16:53;99756.49;;;20.73;55.21
57024;BME280;42916;54.346;18.562;2023-07-20T12:19:25;99756.32;;;20.88;55.38
57024;BME280;42916;54.346;18.562;2023-07-20T12:21:57;99755.89;;;20.89;54.98
57024;BME280;42916;54.346;18.562;2023-07-20T12:24:25;99754.88;;;20.72;53.66
57024;BME280;42916;54.346;18.562;2023-07-20T12:26:56;99756.02;;;20.54;53.01
57024;BME280;42916;54.346;18.562;2023-07-20T12:29:25;99752.36;;;20.40;51.74
57024;BME280;42916;54.346;18.562;2023-07-20T12:31:52;99745.14;;;20.46;51.58
57024;BME280;42916;54.346;18.562;2023-07-20T12:34:19;99743.91;;;20.72;53.35
57024;BME280;42916;54.346;18.562;2023-07-20T12:36:46;99749.63;;;21.27;52.96
57024;BME280;42916;54.346;18.562;2023-07-20T12:39:13;99754.64;;;21.49;50.76
57024;BME280;42916;54.346;18.562;2023-07-20T12:41:39;99751.55;;;21.61;51.21
57024;BME280;42916;54.346;18.562;2023-07-20T12:44:06;99750.00;;;21.55;49.95
57024;BME280;42916;54.346;18.562;2023-07-20T12:46:33;99754.55;;;21.40;50.31
57024;BME280;42916;54.346;18.562;2023-07-20T12:49:03;99750.70;;;21.38;49.36
57024;BME280;42916;54.346;18.562;2023-07-20T12:51:29;99746.83;;;21.64;49.48
57024;BME280;42916;54.346;18.562;2023-07-20T12:53:56;99743.98;;;22.15;48.80
57024;BME280;42916;54.346;18.562;2023-07-20T12:56:23;99742.32;;;22.65;48.87
57024;BME280;42916;54.346;18.562;2023-07-20T12:58:50;99738.58;;;22.94;45.47
57024;BME280;42916;54.346;18.562;2023-07-20T13:01:17;99740.16;;;23.17;46.52
57024;BME280;42916;54.346;18.562;2023-07-20T13:03:43;99740.52;;;23.50;44.43
57024;BME280;42916;54.346;18.562;2023-07-20T13:06:10;99748.67;;;23.72;43.22
57024;BME280;42916;54.346;18.562;2023-07-20T13:08:37;99747.91;;;23.77;42.74
57024;BME280;42916;54.346;18.562;2023-07-20T13:11:04;99749.05;;;23.71;42.72
57024;BME280;42916;54.346;18.562;2023-07-20T13:13:31;99743.48;;;23.47;42.03